sensor_id;sensor_type;location;lat;lon;timestamp;temperature;humidity
50690;DHT22;54375;48.298;11.238;2023-03-23T00:14:11;5.70;89.20
50690;DHT22;54375;48.298;11.238;2023-03-23T00:29:17;5.70;87.50
50690;DHT22;54375;48.298;11.238;2023-03-23T00:44:20;5.60;87.80
50690;DHT22;54375;48.298;11.238;2023-03-23T00:59:23;5.70;89.80
50690;DHT22;54375;48.298;11.238;2023-03-23T01:14:26;5.70;88.50
50690;DHT22;54375;48.298;11.238;2023-03-23T01:29:29;5.50;89.30
50690;DHT22;54375;48.298;11.238;2023-03-23T02:00:10;5.60;89.30
50690;DHT22;54375;48.298;11.238;2023-03-23T02:15:13;5.50;89.40
50690;DHT22;54375;48.298;11.238;2023-03-23T02:30:27;5.50;89.50
50690;DHT22;54375;48.298;11.238;2023-03-23T02:45:35;5.60;90.00
50690;DHT22;54375;48.298;11.238;2023-03-23T03:00:39;5.60;90.10
50690;DHT22;54375;48.298;11.238;2023-03-23T03:15:45;5.70;90.30
50690;DHT22;54375;48.298;11.238;2023-03-23T03:30:54;5.90;90.40
50690;DHT22;54375;48.298;11.238;2023-03-23T03:45:57;6.00;90.20
50690;DHT22;54375;48.298;11.238;2023-03-23T04:01:00;6.10;90.50
50690;DHT22;54375;48.298;11.238;2023-03-23T04:16:03;6.40;90.90
50690;DHT22;54375;48.298;11.238;2023-03-23T04:31:06;6.50;90.10
50690;DHT22;54375;48.298;11.238;2023-03-23T04:46:08;6.70;90.50
50690;DHT22;54375;48.298;11.238;2023-03-23T05:01:11;6.80;90.40
50690;DHT22;54375;48.298;11.238;2023-03-23T05:16:13;6.90;90.10
50690;DHT22;54375;48.298;11.238;2023-03-23T05:31:15;7.00;90.60
50690;DHT22;54375;48.298;11.238;2023-03-23T05:46:18;7.60;90.30
50690;DHT22;54375;48.298;11.238;2023-03-23T06:01:20;8.20;87.00
50690;DHT22;54375;48.298;11.238;2023-03-23T06:16:22;8.50;85.90
50690;DHT22;54375;48.298;11.238;2023-03-23T06:31:26;8.70;86.00
50690;DHT22;54375;48.298;11.238;2023-03-23T06:46:29;9.10;84.50
50690;DHT22;54375;48.298;11.238;2023-03-23T07:01:31;9.70;80.90
50690;DHT22;54375;48.298;11.238;2023-03-23T07:16:34;10.40;78.80
50690;DHT22;54375;48.298;11.238;2023-03-23T07:31:37;11.20;76.00
50690;DHT22;54375;48.298;11.238;2023-03-23T07:46:39;12.00;74.40
50690;DHT22;54375;48.298;11.238;2023-03-23T08:01:41;12.70;70.40
50690;DHT22;54375;48.298;11.238;2023-03-23T08:16:44;13.40;68.80
50690;DHT22;54375;48.298;11.238;2023-03-23T08:31:46;13.90;66.10
50690;DHT22;54375;48.298;11.238;2023-03-23T08:46:48;14.40;62.50
50690;DHT22;54375;48.298;11.238;2023-03-23T09:01:51;14.90;61.00
50690;DHT22;54375;48.298;11.238;2023-03-23T09:16:53;15.90;58.70
50690;DHT22;54375;48.298;11.238;2023-03-23T09:31:55;16.00;58.80
50690;DHT22;54375;48.298;11.238;2023-03-23T09:47:02;16.60;56.40
50690;DHT22;54375;48.298;11.238;2023-03-23T10:02:13;17.20;53.30
50690;DHT22;54375;48.298;11.238;2023-03-23T10:17:20;17.40;51.20
50690;DHT22;54375;48.298;11.238;2023-03-23T10:32:39;17.40;51.70
50690;DHT22;54375;48.298;11.238;2023-03-23T10:47:46;17.50;51.60
50690;DHT22;54375;48.298;11.238;2023-03-23T11:02:59;17.40;51.90
50690;DHT22;54375;48.298;11.238;2023-03-23T11:18:04;17.20;52.20
50690;DHT22;54375;48.298;11.238;2023-03-23T11:33:07;17.70;50.80
50690;DHT22;54375;48.298;11.238;2023-03-23T11:48:21;18.80;49.60
50690;DHT22;54375;48.298;11.238;2023-03-23T12:03:35;19.00;49.40
50690;DHT22;54375;48.298;11.238;2023-03-23T12:18:48;18.50;49.70
50690;DHT22;54375;48.298;11.238;2023-03-23T12:33:56;18.60;47.60
50690;DHT22;54375;48.298;11.238;2023-03-23T12:49:05;18.10;49.20
50690;DHT22;54375;48.298;11.238;2023-03-23T13:04:13;18.00;48.30
50690;DHT22;54375;48.298;11.238;2023-03-23T13:19:23;18.00;48.30
50690;DHT22;54375;48.298;11.238;2023-03-23T13:34:31;17.90;49.40
50690;DHT22;54375;48.298;11.238;2023-03-23T13:49:45;17.90;50.60
50690;DHT22;54375;48.298;11.238;2023-03-23T14:04:50;17.90;50.40
50690;DHT22;54375;48.298;11.238;2023-03-23T14:19:54;17.90;50.30
50690;DHT22;54375;48.298;11.238;2023-03-23T14:34:57;17.80;50.60
50690;DHT22;54375;48.298;11.238;2023-03-23T14:50:01;17.30;52.40
50690;DHT22;54375;48.298;11.238;2023-03-23T15:05:09;17.10;53.00
50690;DHT22;54375;48.298;11.238;2023-03-23T15:20:21;17.00;52.40
50690;DHT22;54375;48.298;11.238;2023-03-23T15:35:25;16.60;55.00
50690;DHT22;54375;48.298;11.238;2023-03-23T15:50:34;16.40;55.30
50690;DHT22;54375;48.298;11.238;2023-03-23T16:05:37;16.00;57.50
50690;DHT22;54375;48.298;11.238;2023-03-23T16:20:40;15.40;62.00
50690;DHT22;54375;48.298;11.238;2023-03-23T16:35:43;15.20;62.20
50690;DHT22;54375;48.298;11.238;2023-03-23T16:50:45;15.10;63.00
50690;DHT22;54375;48.298;11.238;2023-03-23T17:05:48;15.00;63.10
50690;DHT22;54375;48.298;11.238;2023-03-23T17:20:51;14.90;64.10
50690;DHT22;54375;48.298;11.238;2023-03-23T17:35:54;14.60;65.30
50690;DHT22;54375;48.298;11.238;2023-03-23T17:50:56;14.40;67.60
50690;DHT22;54375;48.298;11.238;2023-03-23T18:06:00;14.10;68.20
50690;DHT22;54375;48.298;11.238;2023-03-23T18:21:05;13.90;68.70
50690;DHT22;54375;48.298;11.238;2023-03-23T18:36:08;13.70;70.10
50690;DHT22;54375;48.298;11.238;2023-03-23T18:51:11;13.40;71.40
50690;DHT22;54375;48.298;11.238;2023-03-23T19:06:17;13.20;72.70
50690;DHT22;54375;48.298;11.238;2023-03-23T19:21:19;13.00;74.10
50690;DHT22;54375;48.298;11.238;2023-03-23T19:36:22;12.80;74.80
50690;DHT22;54375;48.298;11.238;2023-03-23T19:51:25;12.70;75.30
50690;DHT22;54375;48.298;11.238;2023-03-23T20:06:28;12.70;75.10
50690;DHT22;54375;48.298;11.238;2023-03-23T20:21:31;12.70;74.40
50690;DHT22;54375;48.298;11.238;2023-03-23T20:36:36;12.70;74.00
50690;DHT22;54375;48.298;11.238;2023-03-23T20:51:38;12.70;73.40
50690;DHT22;54375;48.298;11.238;2023-03-23T21:06:41;12.80;72.90
50690;DHT22;54375;48.298;11.238;2023-03-23T21:21:44;12.90;72.60
50690;DHT22;54375;48.298;11.238;2023-03-23T21:36:46;12.80;75.50
50690;DHT22;54375;48.298;11.238;2023-03-23T21:51:49;12.50;76.60
50690;DHT22;54375;48.298;11.238;2023-03-23T22:06:51;12.30;77.40
50690;DHT22;54375;48.298;11.238;2023-03-23T22:21:54;12.20;77.30
50690;DHT22;54375;48.298;11.238;2023-03-23T22:36:56;12.10;77.10
50690;DHT22;54375;48.298;11.238;2023-03-23T22:51:59;12.00;77.00
50690;DHT22;54375;48.298;11.238;2023-03-23T23:07:01;12.00;76.80
50690;DHT22;54375;48.298;11.238;2023-03-23T23:22:04;11.90;77.50
50690;DHT22;54375;48.298;11.238;2023-03-23T23:37:06;11.70;78.50
50690;DHT22;54375;48.298;11.238;2023-03-23T23:52:08;11.60;80.10
